sensor_id;sensor_type;location;lat;lon;timestamp;temperature;humidity
26990;DHT22;14537;47.788;11.858;2022-10-16T00:00:19;9.90;99.90
26990;DHT22;14537;47.788;11.858;2022-10-16T00:02:44;9.90;99.90
26990;DHT22;14537;47.788;11.858;2022-10-16T00:05:10;9.90;99.90
26990;DHT22;14537;47.788;11.858;2022-10-16T00:07:36;9.90;99.90
26990;DHT22;14537;47.788;11.858;2022-10-16T00:10:01;9.80;99.90
26990;DHT22;14537;47.788;11.858;2022-10-16T00:12:27;9.80;99.90
26990;DHT22;14537;47.788;11.858;2022-10-16T00:14:53;9.70;99.90
26990;DHT22;14537;47.788;11.858;2022-10-16T00:17:18;9.70;99.90
26990;DHT22;14537;47.788;11.858;2022-10-16T00:19:44;9.70;99.90
26990;DHT22;14537;47.788;11.858;2022-10-16T00:22:09;9.70;99.90
26990;DHT22;14537;47.788;11.858;2022-10-16T00:24:36;9.70;99.90
26990;DHT22;14537;47.788;11.858;2022-10-16T00:27:02;9.80;99.90
26990;DHT22;14537;47.788;11.858;2022-10-16T00:29:27;9.80;99.90
26990;DHT22;14537;47.788;11.858;2022-10-16T00:31:53;9.70;99.90
26990;DHT22;14537;47.788;11.858;2022-10-16T00:34:19;9.60;99.90
26990;DHT22;14537;47.788;11.858;2022-10-16T00:36:44;9.70;99.90
26990;DHT22;14537;47.788;11.858;2022-10-16T00:39:10;9.70;99.90
26990;DHT22;14537;47.788;11.858;2022-10-16T00:41:36;9.70;99.90
26990;DHT22;14537;47.788;11.858;2022-10-16T00:44:40;9.70;99.90
26990;DHT22;14537;47.788;11.858;2022-10-16T00:46:50;9.70;99.90
26990;DHT22;14537;47.788;11.858;2022-10-16T00:49:17;9.50;99.90
26990;DHT22;14537;47.788;11.858;2022-10-16T00:51:52;9.40;99.90
26990;DHT22;14537;47.788;11.858;2022-10-16T00:54:26;9.40;99.90
26990;DHT22;14537;47.788;11.858;2022-10-16T00:56:54;9.40;99.90
26990;DHT22;14537;47.788;11.858;2022-10-16T00:59:29;9.50;99.90
26990;DHT22;14537;47.788;11.858;2022-10-16T01:01:56;9.40;99.90
26990;DHT22;14537;47.788;11.858;2022-10-16T01:04:23;9.40;99.90
26990;DHT22;14537;47.788;11.858;2022-10-16T01:07:12;9.40;99.90
26990;DHT22;14537;47.788;11.858;2022-10-16T01:12:38;9.30;99.90
26990;DHT22;14537;47.788;11.858;2022-10-16T01:15:32;9.30;99.90
26990;DHT22;14537;47.788;11.858;2022-10-16T01:18:14;9.30;99.90
26990;DHT22;14537;47.788;11.858;2022-10-16T01:20:50;9.30;99.90
26990;DHT22;14537;47.788;11.858;2022-10-16T01:23:30;9.30;99.90
26990;DHT22;14537;47.788;11.858;2022-10-16T01:26:16;9.30;99.90
26990;DHT22;14537;47.788;11.858;2022-10-16T01:31:34;9.30;99.90
26990;DHT22;14537;47.788;11.858;2022-10-16T01:34:03;9.20;99.90
26990;DHT22;14537;47.788;11.858;2022-10-16T01:36:40;9.20;99.90
26990;DHT22;14537;47.788;11.858;2022-10-16T01:39:09;9.20;99.90
26990;DHT22;14537;47.788;11.858;2022-10-16T01:41:46;9.10;99.90
26990;DHT22;14537;47.788;11.858;2022-10-16T01:44:21;9.00;99.90
26990;DHT22;14537;47.788;11.858;2022-10-16T01:46:50;9.10;99.90
26990;DHT22;14537;47.788;11.858;2022-10-16T01:49:17;9.10;99.90
26990;DHT22;14537;47.788;11.858;2022-10-16T01:51:46;9.10;99.90
26990;DHT22;14537;47.788;11.858;2022-10-16T01:54:14;9.00;99.90
26990;DHT22;14537;47.788;11.858;2022-10-16T01:56:41;9.00;99.90
26990;DHT22;14537;47.788;11.858;2022-10-16T01:59:12;9.00;99.90
26990;DHT22;14537;47.788;11.858;2022-10-16T02:01:41;9.00;99.90
26990;DHT22;14537;47.788;11.858;2022-10-16T02:04:15;9.00;99.90
26990;DHT22;14537;47.788;11.858;2022-10-16T02:06:42;9.10;99.90
26990;DHT22;14537;47.788;11.858;2022-10-16T02:09:08;9.10;99.90
26990;DHT22;14537;47.788;11.858;2022-10-16T02:11:34;9.10;99.90
26990;DHT22;14537;47.788;11.858;2022-10-16T02:14:07;9.10;99.90
26990;DHT22;14537;47.788;11.858;2022-10-16T02:16:38;9.10;99.90
26990;DHT22;14537;47.788;11.858;2022-10-16T02:19:05;9.00;99.90
26990;DHT22;14537;47.788;11.858;2022-10-16T02:21:44;9.10;99.90
26990;DHT22;14537;47.788;11.858;2022-10-16T02:24:39;9.10;99.90
26990;DHT22;14537;47.788;11.858;2022-10-16T02:30:19;9.00;99.90
26990;DHT22;14537;47.788;11.858;2022-10-16T02:32:48;8.90;99.90
26990;DHT22;14537;47.788;11.858;2022-10-16T02:35:17;8.80;99.90
26990;DHT22;14537;47.788;11.858;2022-10-16T02:37:44;8.90;99.90
26990;DHT22;14537;47.788;11.858;2022-10-16T02:40:11;8.70;99.90
26990;DHT22;14537;47.788;11.858;2022-10-16T02:42:39;8.60;99.90
26990;DHT22;14537;47.788;11.858;2022-10-16T02:45:07;8.60;99.90
26990;DHT22;14537;47.788;11.858;2022-10-16T02:47:33;8.60;99.90
26990;DHT22;14537;47.788;11.858;2022-10-16T02:49:59;8.70;99.90
26990;DHT22;14537;47.788;11.858;2022-10-16T02:52:25;8.70;99.90
26990;DHT22;14537;47.788;11.858;2022-10-16T02:54:51;8.60;99.90
26990;DHT22;14537;47.788;11.858;2022-10-16T02:57:17;8.70;99.90
26990;DHT22;14537;47.788;11.858;2022-10-16T02:59:43;8.60;99.90
26990;DHT22;14537;47.788;11.858;2022-10-16T03:02:09;8.60;99.90
26990;DHT22;14537;47.788;11.858;2022-10-16T03:04:35;8.50;99.90
26990;DHT22;14537;47.788;11.858;2022-10-16T03:07:01;8.40;99.90
26990;DHT22;14537;47.788;11.858;2022-10-16T03:09:26;8.50;99.90
26990;DHT22;14537;47.788;11.858;2022-10-16T03:11:52;8.60;99.90
26990;DHT22;14537;47.788;11.858;2022-10-16T03:14:18;8.70;99.90
26990;DHT22;14537;47.788;11.858;2022-10-16T03:16:43;8.70;99.90
26990;DHT22;14537;47.788;11.858;2022-10-16T03:19:09;8.70;99.90
26990;DHT22;14537;47.788;11.858;2022-10-16T03:21:35;8.70;99.90
26990;DHT22;14537;47.788;11.858;2022-10-16T03:24:00;8.70;99.90
26990;DHT22;14537;47.788;11.858;2022-10-16T03:26:26;8.70;99.90
26990;DHT22;14537;47.788;11.858;2022-10-16T03:28:52;8.50;99.90
26990;DHT22;14537;47.788;11.858;2022-10-16T03:31:17;8.50;99.90
26990;DHT22;14537;47.788;11.858;2022-10-16T03:33:43;8.50;99.90
26990;DHT22;14537;47.788;11.858;2022-10-16T03:36:09;8.60;99.90
26990;DHT22;14537;47.788;11.858;2022-10-16T03:38:34;8.70;99.90
26990;DHT22;14537;47.788;11.858;2022-10-16T03:41:00;8.70;99.90
26990;DHT22;14537;47.788;11.858;2022-10-16T03:43:25;8.70;99.90
26990;DHT22;14537;47.788;11.858;2022-10-16T03:45:51;8.80;99.90
26990;DHT22;14537;47.788;11.858;2022-10-16T03:48:18;8.80;99.90
26990;DHT22;14537;47.788;11.858;2022-10-16T03:50:44;8.80;99.90
26990;DHT22;14537;47.788;11.858;2022-10-16T03:53:09;8.80;99.90
26990;DHT22;14537;47.788;11.858;2022-10-16T03:55:35;8.70;99.90
26990;DHT22;14537;47.788;11.858;2022-10-16T03:58:01;8.60;99.90
26990;DHT22;14537;47.788;11.858;2022-10-16T04:00:27;8.40;99.90
26990;DHT22;14537;47.788;11.858;2022-10-16T04:02:53;8.50;99.90
26990;DHT22;14537;47.788;11.858;2022-10-16T04:05:19;8.70;99.90
26990;DHT22;14537;47.788;11.858;2022-10-16T04:07:44;8.70;99.90
26990;DHT22;14537;47.788;11.858;2022-10-16T04:10:10;8.70;99.90
26990;DHT22;14537;47.788;11.858;2022-10-16T04:12:36;8.70;99.90
26990;DHT22;14537;47.788;11.858;2022-10-16T04:15:02;8.70;99.90
26990;DHT22;14537;47.788;11.858;2022-10-16T04:17:27;8.80;99.90
26990;DHT22;14537;47.788;11.858;2022-10-16T04:19:53;8.80;99.90
26990;DHT22;14537;47.788;11.858;2022-10-16T04:22:19;8.80;99.90
26990;DHT22;14537;47.788;11.858;2022-10-16T04:24:44;8.70;99.90
26990;DHT22;14537;47.788;11.858;2022-10-16T04:27:10;8.70;99.90
26990;DHT22;14537;47.788;11.858;2022-10-16T04:29:35;8.60;99.90
26990;DHT22;14537;47.788;11.858;2022-10-16T04:32:01;8.60;99.90
26990;DHT22;14537;47.788;11.858;2022-10-16T04:34:27;8.60;99.90
26990;DHT22;14537;47.788;11.858;2022-10-16T04:36:52;8.60;99.90
26990;DHT22;14537;47.788;11.858;2022-10-16T04:39:18;8.70;99.90
26990;DHT22;14537;47.788;11.858;2022-10-16T04:41:44;8.70;99.90
26990;DHT22;14537;47.788;11.858;2022-10-16T04:44:09;8.70;99.90
26990;DHT22;14537;47.788;11.858;2022-10-16T04:46:35;8.80;99.90
26990;DHT22;14537;47.788;11.858;2022-10-16T04:49:01;8.80;99.90
26990;DHT22;14537;47.788;11.858;2022-10-16T04:51:26;8.80;99.90
26990;DHT22;14537;47.788;11.858;2022-10-16T04:53:53;8.80;99.90
26990;DHT22;14537;47.788;11.858;2022-10-16T04:56:20;8.80;99.90
26990;DHT22;14537;47.788;11.858;2022-10-16T04:58:46;8.90;99.90
26990;DHT22;14537;47.788;11.858;2022-10-16T05:01:12;8.90;99.90
26990;DHT22;14537;47.788;11.858;2022-10-16T05:03:38;9.00;99.90
26990;DHT22;14537;47.788;11.858;2022-10-16T05:06:06;8.90;99.90
26990;DHT22;14537;47.788;11.858;2022-10-16T05:08:31;8.80;99.90
26990;DHT22;14537;47.788;11.858;2022-10-16T05:10:57;8.80;99.90
26990;DHT22;14537;47.788;11.858;2022-10-16T05:13:23;8.70;99.90
26990;DHT22;14537;47.788;11.858;2022-10-16T05:15:49;8.70;99.90
26990;DHT22;14537;47.788;11.858;2022-10-16T05:18:15;8.70;99.90
26990;DHT22;14537;47.788;11.858;2022-10-16T05:20:41;8.70;99.90
26990;DHT22;14537;47.788;11.858;2022-10-16T05:23:07;8.70;99.90
26990;DHT22;14537;47.788;11.858;2022-10-16T05:25:35;8.70;99.90
26990;DHT22;14537;47.788;11.858;2022-10-16T05:28:01;8.80;99.90
26990;DHT22;14537;47.788;11.858;2022-10-16T05:30:27;8.80;99.90
26990;DHT22;14537;47.788;11.858;2022-10-16T05:32:53;8.90;99.90
26990;DHT22;14537;47.788;11.858;2022-10-16T05:35:18;8.90;99.90
26990;DHT22;14537;47.788;11.858;2022-10-16T05:37:44;9.00;99.90
26990;DHT22;14537;47.788;11.858;2022-10-16T05:40:11;9.00;99.90
26990;DHT22;14537;47.788;11.858;2022-10-16T05:42:38;9.10;99.90
26990;DHT22;14537;47.788;11.858;2022-10-16T05:45:05;9.10;99.90
26990;DHT22;14537;47.788;11.858;2022-10-16T05:47:31;9.20;99.90
26990;DHT22;14537;47.788;11.858;2022-10-16T05:49:57;9.30;99.90
26990;DHT22;14537;47.788;11.858;2022-10-16T05:52:23;9.30;99.90
26990;DHT22;14537;47.788;11.858;2022-10-16T05:54:48;9.50;99.90
26990;DHT22;14537;47.788;11.858;2022-10-16T05:57:15;9.70;99.90
26990;DHT22;14537;47.788;11.858;2022-10-16T05:59:40;9.70;99.90
26990;DHT22;14537;47.788;11.858;2022-10-16T06:02:07;9.50;99.90
26990;DHT22;14537;47.788;11.858;2022-10-16T06:04:34;9.40;99.90
26990;DHT22;14537;47.788;11.858;2022-10-16T06:06:59;9.50;99.90
26990;DHT22;14537;47.788;11.858;2022-10-16T06:09:28;9.60;99.90
26990;DHT22;14537;47.788;11.858;2022-10-16T06:11:53;9.70;99.90
26990;DHT22;14537;47.788;11.858;2022-10-16T06:14:19;9.70;99.90
26990;DHT22;14537;47.788;11.858;2022-10-16T06:16:45;9.80;99.90
26990;DHT22;14537;47.788;11.858;2022-10-16T06:19:10;9.80;99.90
26990;DHT22;14537;47.788;11.858;2022-10-16T06:21:36;9.90;99.90
26990;DHT22;14537;47.788;11.858;2022-10-16T06:24:02;9.90;99.90
26990;DHT22;14537;47.788;11.858;2022-10-16T06:26:30;9.90;99.90
26990;DHT22;14537;47.788;11.858;2022-10-16T06:28:57;9.90;99.90
26990;DHT22;14537;47.788;11.858;2022-10-16T06:31:23;9.90;99.90
26990;DHT22;14537;47.788;11.858;2022-10-16T06:33:52;10.00;99.90
26990;DHT22;14537;47.788;11.858;2022-10-16T06:36:19;10.10;99.90
26990;DHT22;14537;47.788;11.858;2022-10-16T06:38:45;10.10;99.90
26990;DHT22;14537;47.788;11.858;2022-10-16T06:41:13;10.20;99.90
26990;DHT22;14537;47.788;11.858;2022-10-16T06:43:39;10.20;99.90
26990;DHT22;14537;47.788;11.858;2022-10-16T06:46:06;10.20;99.90
26990;DHT22;14537;47.788;11.858;2022-10-16T06:48:35;10.30;99.90
26990;DHT22;14537;47.788;11.858;2022-10-16T06:51:21;10.30;99.90
26990;DHT22;14537;47.788;11.858;2022-10-16T06:53:49;10.40;99.90
26990;DHT22;14537;47.788;11.858;2022-10-16T06:56:17;10.40;99.90
26990;DHT22;14537;47.788;11.858;2022-10-16T06:58:44;10.50;99.90
26990;DHT22;14537;47.788;11.858;2022-10-16T07:01:10;10.50;99.90
26990;DHT22;14537;47.788;11.858;2022-10-16T07:03:37;10.60;99.90
26990;DHT22;14537;47.788;11.858;2022-10-16T07:06:05;10.60;99.90
26990;DHT22;14537;47.788;11.858;2022-10-16T07:08:35;10.60;99.90
26990;DHT22;14537;47.788;11.858;2022-10-16T07:11:03;10.70;99.90
26990;DHT22;14537;47.788;11.858;2022-10-16T07:13:32;10.70;99.90
26990;DHT22;14537;47.788;11.858;2022-10-16T07:15:58;10.70;99.90
26990;DHT22;14537;47.788;11.858;2022-10-16T07:18:23;10.70;99.90
26990;DHT22;14537;47.788;11.858;2022-10-16T07:20:52;10.80;99.90
26990;DHT22;14537;47.788;11.858;2022-10-16T07:23:18;11.00;99.90
26990;DHT22;14537;47.788;11.858;2022-10-16T07:25:43;11.10;99.90
26990;DHT22;14537;47.788;11.858;2022-10-16T07:28:09;11.10;99.90
26990;DHT22;14537;47.788;11.858;2022-10-16T07:30:36;11.20;99.90
26990;DHT22;14537;47.788;11.858;2022-10-16T07:33:02;11.30;99.90
26990;DHT22;14537;47.788;11.858;2022-10-16T07:35:29;11.40;99.90
26990;DHT22;14537;47.788;11.858;2022-10-16T07:37:54;11.40;99.90
26990;DHT22;14537;47.788;11.858;2022-10-16T07:40:20;11.50;99.90
26990;DHT22;14537;47.788;11.858;2022-10-16T07:42:45;11.40;99.90
26990;DHT22;14537;47.788;11.858;2022-10-16T07:45:11;11.50;99.90
26990;DHT22;14537;47.788;11.858;2022-10-16T07:47:37;11.60;99.90
26990;DHT22;14537;47.788;11.858;2022-10-16T07:50:03;11.70;99.90
26990;DHT22;14537;47.788;11.858;2022-10-16T07:52:28;11.70;99.90
26990;DHT22;14537;47.788;11.858;2022-10-16T07:54:54;11.80;99.90
26990;DHT22;14537;47.788;11.858;2022-10-16T07:57:20;11.80;99.90
26990;DHT22;14537;47.788;11.858;2022-10-16T07:59:46;12.00;99.90
26990;DHT22;14537;47.788;11.858;2022-10-16T08:02:12;12.40;99.90
26990;DHT22;14537;47.788;11.858;2022-10-16T08:04:38;12.60;99.90
26990;DHT22;14537;47.788;11.858;2022-10-16T08:07:03;13.00;99.90
26990;DHT22;14537;47.788;11.858;2022-10-16T08:09:29;13.00;99.90
26990;DHT22;14537;47.788;11.858;2022-10-16T08:11:55;13.00;99.90
26990;DHT22;14537;47.788;11.858;2022-10-16T08:14:20;12.90;99.90
26990;DHT22;14537;47.788;11.858;2022-10-16T08:16:46;12.90;99.90
26990;DHT22;14537;47.788;11.858;2022-10-16T08:19:11;13.10;99.90
26990;DHT22;14537;47.788;11.858;2022-10-16T08:21:37;13.20;99.90
26990;DHT22;14537;47.788;11.858;2022-10-16T08:24:03;13.20;99.90
26990;DHT22;14537;47.788;11.858;2022-10-16T08:26:29;13.20;99.90
26990;DHT22;14537;47.788;11.858;2022-10-16T08:28:55;13.20;99.90
26990;DHT22;14537;47.788;11.858;2022-10-16T08:31:21;13.40;99.90
26990;DHT22;14537;47.788;11.858;2022-10-16T08:33:47;13.60;99.90
26990;DHT22;14537;47.788;11.858;2022-10-16T08:36:14;13.60;99.90
26990;DHT22;14537;47.788;11.858;2022-10-16T08:38:40;13.70;99.90
26990;DHT22;14537;47.788;11.858;2022-10-16T08:49:18;14.10;99.90
26990;DHT22;14537;47.788;11.858;2022-10-16T08:51:44;14.10;99.90
26990;DHT22;14537;47.788;11.858;2022-10-16T08:56:43;14.30;99.90
26990;DHT22;14537;47.788;11.858;2022-10-16T08:59:14;14.60;99.90
26990;DHT22;14537;47.788;11.858;2022-10-16T09:01:44;14.60;99.90
26990;DHT22;14537;47.788;11.858;2022-10-16T09:07:39;14.60;99.90
26990;DHT22;14537;47.788;11.858;2022-10-16T09:12:57;14.70;99.90
26990;DHT22;14537;47.788;11.858;2022-10-16T09:15:37;14.80;99.90
26990;DHT22;14537;47.788;11.858;2022-10-16T09:18:32;14.90;99.90
26990;DHT22;14537;47.788;11.858;2022-10-16T09:21:23;14.90;99.90
26990;DHT22;14537;47.788;11.858;2022-10-16T09:23:49;15.00;99.90
26990;DHT22;14537;47.788;11.858;2022-10-16T09:26:16;15.10;99.90
26990;DHT22;14537;47.788;11.858;2022-10-16T09:28:43;15.30;99.90
26990;DHT22;14537;47.788;11.858;2022-10-16T09:31:20;15.40;99.90
26990;DHT22;14537;47.788;11.858;2022-10-16T09:33:57;15.50;99.90
26990;DHT22;14537;47.788;11.858;2022-10-16T09:36:25;15.60;99.90
26990;DHT22;14537;47.788;11.858;2022-10-16T09:39:05;15.70;99.90
26990;DHT22;14537;47.788;11.858;2022-10-16T09:41:34;15.90;99.90
26990;DHT22;14537;47.788;11.858;2022-10-16T09:44:01;16.00;99.90
26990;DHT22;14537;47.788;11.858;2022-10-16T09:46:29;16.10;99.90
26990;DHT22;14537;47.788;11.858;2022-10-16T09:49:20;16.20;99.90
26990;DHT22;14537;47.788;11.858;2022-10-16T09:51:46;16.30;99.90
26990;DHT22;14537;47.788;11.858;2022-10-16T09:54:18;16.30;99.90
26990;DHT22;14537;47.788;11.858;2022-10-16T09:56:44;16.70;99.90
26990;DHT22;14537;47.788;11.858;2022-10-16T09:59:22;16.90;99.90
26990;DHT22;14537;47.788;11.858;2022-10-16T10:01:53;16.80;99.90
26990;DHT22;14537;47.788;11.858;2022-10-16T10:04:22;16.70;99.90
26990;DHT22;14537;47.788;11.858;2022-10-16T10:06:53;16.80;99.90
26990;DHT22;14537;47.788;11.858;2022-10-16T10:09:31;16.70;99.90
26990;DHT22;14537;47.788;11.858;2022-10-16T10:12:00;16.80;99.90
26990;DHT22;14537;47.788;11.858;2022-10-16T10:14:35;16.90;99.90
26990;DHT22;14537;47.788;11.858;2022-10-16T10:33:26;17.70;99.90
26990;DHT22;14537;47.788;11.858;2022-10-16T10:38:46;18.40;99.90
26990;DHT22;14537;47.788;11.858;2022-10-16T11:01:09;19.50;99.90
26990;DHT22;14537;47.788;11.858;2022-10-16T11:06:56;19.90;99.90
26990;DHT22;14537;47.788;11.858;2022-10-16T11:09:48;20.10;99.90
26990;DHT22;14537;47.788;11.858;2022-10-16T11:12:17;20.00;99.90
26990;DHT22;14537;47.788;11.858;2022-10-16T11:17:34;20.50;98.60
26990;DHT22;14537;47.788;11.858;2022-10-16T11:22:44;20.50;99.90
26990;DHT22;14537;47.788;11.858;2022-10-16T11:25:13;20.70;98.50
26990;DHT22;14537;47.788;11.858;2022-10-16T11:30:54;21.00;97.20
26990;DHT22;14537;47.788;11.858;2022-10-16T11:36:38;20.90;99.90
26990;DHT22;14537;47.788;11.858;2022-10-16T11:41:59;20.90;99.90
26990;DHT22;14537;47.788;11.858;2022-10-16T11:49:37;21.20;97.40
26990;DHT22;14537;47.788;11.858;2022-10-16T11:52:28;21.30;96.10
26990;DHT22;14537;47.788;11.858;2022-10-16T11:55:04;21.30;96.80
26990;DHT22;14537;47.788;11.858;2022-10-16T11:57:39;21.30;98.20
26990;DHT22;14537;47.788;11.858;2022-10-16T12:00:31;21.20;97.40
26990;DHT22;14537;47.788;11.858;2022-10-16T12:03:20;21.40;96.10
26990;DHT22;14537;47.788;11.858;2022-10-16T12:08:16;21.60;98.30
26990;DHT22;14537;47.788;11.858;2022-10-16T12:10:45;21.60;96.70
26990;DHT22;14537;47.788;11.858;2022-10-16T12:13:37;21.60;96.90
26990;DHT22;14537;47.788;11.858;2022-10-16T12:16:23;21.70;94.40
26990;DHT22;14537;47.788;11.858;2022-10-16T12:18:49;21.70;93.50
26990;DHT22;14537;47.788;11.858;2022-10-16T12:21:16;21.70;92.70
26990;DHT22;14537;47.788;11.858;2022-10-16T12:23:58;21.80;93.60
26990;DHT22;14537;47.788;11.858;2022-10-16T12:26:27;21.90;90.60
26990;DHT22;14537;47.788;11.858;2022-10-16T12:28:55;21.80;95.10
26990;DHT22;14537;47.788;11.858;2022-10-16T12:31:21;21.80;94.70
26990;DHT22;14537;47.788;11.858;2022-10-16T12:34:01;21.80;95.90
26990;DHT22;14537;47.788;11.858;2022-10-16T12:36:32;21.70;95.90
26990;DHT22;14537;47.788;11.858;2022-10-16T12:38:59;21.70;96.20
26990;DHT22;14537;47.788;11.858;2022-10-16T12:41:28;21.60;96.30
26990;DHT22;14537;47.788;11.858;2022-10-16T12:43:54;21.60;96.20
26990;DHT22;14537;47.788;11.858;2022-10-16T12:49:50;21.80;91.40
26990;DHT22;14537;47.788;11.858;2022-10-16T12:51:51;21.90;91.20
26990;DHT22;14537;47.788;11.858;2022-10-16T12:54:26;21.70;90.70
26990;DHT22;14537;47.788;11.858;2022-10-16T12:57:31;21.80;91.20
26990;DHT22;14537;47.788;11.858;2022-10-16T13:05:35;21.80;91.80
26990;DHT22;14537;47.788;11.858;2022-10-16T13:21:42;22.00;91.90
26990;DHT22;14537;47.788;11.858;2022-10-16T13:29:52;21.60;99.90
26990;DHT22;14537;47.788;11.858;2022-10-16T13:32:21;21.60;99.90
26990;DHT22;14537;47.788;11.858;2022-10-16T13:34:48;21.50;99.90
26990;DHT22;14537;47.788;11.858;2022-10-16T13:37:32;21.60;99.90
26990;DHT22;14537;47.788;11.858;2022-10-16T13:40:21;21.60;99.90
26990;DHT22;14537;47.788;11.858;2022-10-16T13:42:47;21.60;99.90
26990;DHT22;14537;47.788;11.858;2022-10-16T13:45:24;21.50;99.90
26990;DHT22;14537;47.788;11.858;2022-10-16T13:48:08;21.60;99.90
26990;DHT22;14537;47.788;11.858;2022-10-16T13:50:34;21.60;99.90
26990;DHT22;14537;47.788;11.858;2022-10-16T13:53:09;21.60;99.90
26990;DHT22;14537;47.788;11.858;2022-10-16T13:55:37;21.60;99.90
26990;DHT22;14537;47.788;11.858;2022-10-16T13:58:21;21.50;99.90
26990;DHT22;14537;47.788;11.858;2022-10-16T14:00:56;21.50;99.90
26990;DHT22;14537;47.788;11.858;2022-10-16T14:03:22;21.50;99.90
26990;DHT22;14537;47.788;11.858;2022-10-16T14:05:51;21.50;99.90
26990;DHT22;14537;47.788;11.858;2022-10-16T14:08:18;21.40;99.90
26990;DHT22;14537;47.788;11.858;2022-10-16T14:10:48;21.50;99.90
26990;DHT22;14537;47.788;11.858;2022-10-16T14:13:19;21.50;99.90
26990;DHT22;14537;47.788;11.858;2022-10-16T14:15:49;21.40;99.90
26990;DHT22;14537;47.788;11.858;2022-10-16T14:18:25;21.40;99.90
26990;DHT22;14537;47.788;11.858;2022-10-16T14:20:52;21.40;99.90
26990;DHT22;14537;47.788;11.858;2022-10-16T14:23:34;21.40;99.90
26990;DHT22;14537;47.788;11.858;2022-10-16T14:28:37;21.30;99.90
26990;DHT22;14537;47.788;11.858;2022-10-16T14:32:20;21.30;99.90
26990;DHT22;14537;47.788;11.858;2022-10-16T14:34:33;21.30;99.90
26990;DHT22;14537;47.788;11.858;2022-10-16T14:37:01;21.30;99.90
26990;DHT22;14537;47.788;11.858;2022-10-16T14:39:32;21.20;99.90
26990;DHT22;14537;47.788;11.858;2022-10-16T14:41:59;21.20;99.90
26990;DHT22;14537;47.788;11.858;2022-10-16T14:44:33;21.20;99.90
26990;DHT22;14537;47.788;11.858;2022-10-16T14:47:08;21.20;99.90
26990;DHT22;14537;47.788;11.858;2022-10-16T14:49:34;21.10;99.90
26990;DHT22;14537;47.788;11.858;2022-10-16T14:52:01;21.10;99.90
26990;DHT22;14537;47.788;11.858;2022-10-16T14:54:27;21.00;99.90
26990;DHT22;14537;47.788;11.858;2022-10-16T14:56:56;21.00;99.90
26990;DHT22;14537;47.788;11.858;2022-10-16T14:59:40;20.90;99.90
26990;DHT22;14537;47.788;11.858;2022-10-16T15:02:28;20.90;99.90
26990;DHT22;14537;47.788;11.858;2022-10-16T15:04:55;20.90;99.90
26990;DHT22;14537;47.788;11.858;2022-10-16T15:07:20;20.80;99.90
26990;DHT22;14537;47.788;11.858;2022-10-16T15:09:46;20.70;99.90
26990;DHT22;14537;47.788;11.858;2022-10-16T15:12:12;20.70;99.90
26990;DHT22;14537;47.788;11.858;2022-10-16T15:14:38;20.70;99.90
26990;DHT22;14537;47.788;11.858;2022-10-16T15:17:04;20.60;99.90
26990;DHT22;14537;47.788;11.858;2022-10-16T15:19:30;20.60;99.90
26990;DHT22;14537;47.788;11.858;2022-10-16T15:21:56;20.50;99.90
26990;DHT22;14537;47.788;11.858;2022-10-16T15:24:22;20.50;99.90
26990;DHT22;14537;47.788;11.858;2022-10-16T15:26:47;20.40;99.90
26990;DHT22;14537;47.788;11.858;2022-10-16T15:29:14;20.40;99.90
26990;DHT22;14537;47.788;11.858;2022-10-16T15:31:40;20.30;99.90
26990;DHT22;14537;47.788;11.858;2022-10-16T15:34:09;20.10;99.90
26990;DHT22;14537;47.788;11.858;2022-10-16T15:36:37;20.10;99.90
26990;DHT22;14537;47.788;11.858;2022-10-16T15:39:13;20.00;99.90
26990;DHT22;14537;47.788;11.858;2022-10-16T15:41:39;19.90;99.90
26990;DHT22;14537;47.788;11.858;2022-10-16T15:44:05;19.60;99.90
26990;DHT22;14537;47.788;11.858;2022-10-16T15:46:31;19.40;99.90
26990;DHT22;14537;47.788;11.858;2022-10-16T15:48:59;19.20;99.90
26990;DHT22;14537;47.788;11.858;2022-10-16T15:51:26;19.00;99.90
26990;DHT22;14537;47.788;11.858;2022-10-16T15:53:58;18.90;99.90
26990;DHT22;14537;47.788;11.858;2022-10-16T15:56:24;18.70;99.90
26990;DHT22;14537;47.788;11.858;2022-10-16T15:58:52;18.50;99.90
26990;DHT22;14537;47.788;11.858;2022-10-16T16:01:19;18.30;99.90
26990;DHT22;14537;47.788;11.858;2022-10-16T16:03:44;18.10;99.90
26990;DHT22;14537;47.788;11.858;2022-10-16T16:06:12;17.90;99.90
26990;DHT22;14537;47.788;11.858;2022-10-16T16:08:38;17.70;99.90
26990;DHT22;14537;47.788;11.858;2022-10-16T16:11:08;17.60;99.90
26990;DHT22;14537;47.788;11.858;2022-10-16T16:13:34;17.50;99.90
26990;DHT22;14537;47.788;11.858;2022-10-16T16:16:06;17.40;99.90
26990;DHT22;14537;47.788;11.858;2022-10-16T16:18:32;17.30;99.90
26990;DHT22;14537;47.788;11.858;2022-10-16T16:20:57;17.10;99.90
26990;DHT22;14537;47.788;11.858;2022-10-16T16:23:23;17.00;99.90
26990;DHT22;14537;47.788;11.858;2022-10-16T16:26:14;16.90;99.90
26990;DHT22;14537;47.788;11.858;2022-10-16T16:28:42;16.80;99.90
26990;DHT22;14537;47.788;11.858;2022-10-16T16:31:08;16.60;99.90
26990;DHT22;14537;47.788;11.858;2022-10-16T16:33:34;16.50;99.90
26990;DHT22;14537;47.788;11.858;2022-10-16T16:36:01;16.30;99.90
26990;DHT22;14537;47.788;11.858;2022-10-16T16:38:28;16.30;99.90
26990;DHT22;14537;47.788;11.858;2022-10-16T16:40:54;16.10;99.90
26990;DHT22;14537;47.788;11.858;2022-10-16T16:43:27;16.10;99.90
26990;DHT22;14537;47.788;11.858;2022-10-16T16:45:54;15.90;99.90
26990;DHT22;14537;47.788;11.858;2022-10-16T16:48:20;15.90;99.90
26990;DHT22;14537;47.788;11.858;2022-10-16T16:50:46;15.70;99.90
26990;DHT22;14537;47.788;11.858;2022-10-16T16:53:12;15.60;99.90
26990;DHT22;14537;47.788;11.858;2022-10-16T16:55:37;15.50;99.90
26990;DHT22;14537;47.788;11.858;2022-10-16T16:58:04;15.40;99.90
26990;DHT22;14537;47.788;11.858;2022-10-16T17:00:30;15.40;99.90
26990;DHT22;14537;47.788;11.858;2022-10-16T17:02:56;15.30;99.90
26990;DHT22;14537;47.788;11.858;2022-10-16T17:05:22;15.20;99.90
26990;DHT22;14537;47.788;11.858;2022-10-16T17:07:48;15.10;99.90
26990;DHT22;14537;47.788;11.858;2022-10-16T17:10:14;15.00;99.90
26990;DHT22;14537;47.788;11.858;2022-10-16T17:12:39;14.90;99.90
26990;DHT22;14537;47.788;11.858;2022-10-16T17:15:05;14.90;99.90
26990;DHT22;14537;47.788;11.858;2022-10-16T17:17:31;14.80;99.90
26990;DHT22;14537;47.788;11.858;2022-10-16T17:19:57;14.80;99.90
26990;DHT22;14537;47.788;11.858;2022-10-16T17:22:22;14.70;99.90
26990;DHT22;14537;47.788;11.858;2022-10-16T17:24:49;14.60;99.90
26990;DHT22;14537;47.788;11.858;2022-10-16T17:27:19;14.60;99.90
26990;DHT22;14537;47.788;11.858;2022-10-16T17:29:45;14.50;99.90
26990;DHT22;14537;47.788;11.858;2022-10-16T17:32:10;14.40;99.90
26990;DHT22;14537;47.788;11.858;2022-10-16T17:34:36;14.40;99.90